createdAt,value
2023-05-21T00:07:30.056Z,40.95
2023-05-21T00:13:03.443Z,40.90
2023-05-21T00:17:57.026Z,41.14
2023-05-21T00:23:04.761Z,41.18
2023-05-21T00:28:13.626Z,41.27
2023-05-21T00:33:25.806Z,41.29
2023-05-21T00:38:47.635Z,41.28
2023-05-21T00:45:27.168Z,41.38
2023-05-21T00:49:48.851Z,41.31
2023-05-21T00:54:44.194Z,41.48
2023-05-21T00:59:56.203Z,41.38
2023-05-21T01:05:01.836Z,41.50
2023-05-21T01:10:20.531Z,41.53
2023-05-21T01:15:26.408Z,41.56
2023-05-21T01:20:55.074Z,41.59
2023-05-21T01:25:52.070Z,41.55
2023-05-21T01:31:00.123Z,41.56
2023-05-21T01:36:15.308Z,41.54
2023-05-21T01:41:40.766Z,41.47
2023-05-21T01:47:17.390Z,41.37
2023-05-21T01:52:33.353Z,41.39
2023-05-21T01:58:39.614Z,41.38
2023-05-21T02:02:49.978Z,41.28
2023-05-21T02:08:19.119Z,41.27
2023-05-21T02:13:49.232Z,41.27
2023-05-21T02:20:39.572Z,41.17
2023-05-21T02:24:33.532Z,41.31
2023-05-21T02:29:41.315Z,41.26
2023-05-21T02:34:52.633Z,41.28
2023-05-21T02:40:25.172Z,41.26
2023-05-21T02:45:40.133Z,41.15
2023-05-21T02:50:55.112Z,41.11
2023-05-21T02:56:21.886Z,41.13
2023-05-21T03:01:19.040Z,41.07
2023-05-21T03:06:35.704Z,41.11
2023-05-21T03:11:48.295Z,40.96
2023-05-21T03:17:00.838Z,41.06
2023-05-21T03:22:13.334Z,40.95
2023-05-21T03:27:30.128Z,40.95
2023-05-21T03:32:43.970Z,40.94
2023-05-21T03:37:56.729Z,40.92
2023-05-21T03:43:42.898Z,40.88
2023-05-21T03:48:58.578Z,41.02
2023-05-21T03:54:10.844Z,40.89
2023-05-21T03:59:18.822Z,40.91
2023-05-21T04:04:35.468Z,40.75
2023-05-21T04:09:58.017Z,40.71
2023-05-21T04:15:12.516Z,40.68
2023-05-21T04:20:20.289Z,40.66
2023-05-21T04:25:36.827Z,40.60
2023-05-21T04:35:22.280Z,40.81
2023-05-21T04:36:05.549Z,40.68
2023-05-21T04:41:28.320Z,40.83
2023-05-21T04:46:36.390Z,40.95
2023-05-21T04:51:59.148Z,41.01
2023-05-21T04:57:37.520Z,41.15
2023-05-21T05:02:51.502Z,41.21
2023-05-21T05:07:59.335Z,41.25
2023-05-21T05:13:50.506Z,41.30
2023-05-21T05:18:57.757Z,41.30
2023-05-21T05:24:06.166Z,41.62
2023-05-21T05:29:13.393Z,41.61
2023-05-21T05:34:22.097Z,41.71
2023-05-21T05:39:29.535Z,41.67
2023-05-21T05:44:38.999Z,41.69
2023-05-21T05:49:46.412Z,41.73
2023-05-21T05:55:00.065Z,41.54
2023-05-21T06:00:09.137Z,41.74
2023-05-21T06:05:14.483Z,41.53
2023-05-21T06:10:25.169Z,41.62
2023-05-21T06:15:41.687Z,41.70
2023-05-21T06:20:48.966Z,41.64
2023-05-21T06:25:56.569Z,41.26
2023-05-21T06:31:03.808Z,41.03
2023-05-21T06:36:11.240Z,40.94
2023-05-21T06:41:18.590Z,40.94
2023-05-21T06:46:26.092Z,41.00
2023-05-21T06:51:38.403Z,42.00
2023-05-21T06:56:47.195Z,41.68
2023-05-21T07:01:54.729Z,41.22
2023-05-21T07:07:05.129Z,41.68
2023-05-21T07:12:10.254Z,41.79
2023-05-21T07:17:23.109Z,41.66
2023-05-21T07:22:43.159Z,41.40
2023-05-21T07:27:46.814Z,41.38
2023-05-21T07:32:54.353Z,41.58
2023-05-21T07:38:16.449Z,41.47
2023-05-21T07:43:23.926Z,41.52
2023-05-21T07:48:32.150Z,43.00
2023-05-21T07:53:38.800Z,43.12
2023-05-21T07:58:50.921Z,43.92
2023-05-21T08:03:58.344Z,43.75
2023-05-21T08:09:05.528Z,43.94
2023-05-21T08:14:13.002Z,43.51
2023-05-21T08:19:20.329Z,44.50
2023-05-21T08:24:30.473Z,43.33
2023-05-21T08:29:40.098Z,42.94
2023-05-21T08:34:44.989Z,42.50
2023-05-21T08:39:52.337Z,42.61
2023-05-21T08:44:59.633Z,43.08
2023-05-21T08:50:07.012Z,43.62
2023-05-21T08:55:14.466Z,44.02
2023-05-21T09:00:25.909Z,44.74
2023-05-21T09:05:35.153Z,43.29
2023-05-21T09:10:42.231Z,43.18
2023-05-21T09:16:25.201Z,42.68
2023-05-21T09:21:32.640Z,42.72
2023-05-21T09:26:40.217Z,42.76
2023-05-21T09:31:48.111Z,43.23
2023-05-21T09:37:06.553Z,43.97
2023-05-21T09:42:11.243Z,44.65
2023-05-21T09:47:21.545Z,44.32
2023-05-21T09:52:27.399Z,44.59
2023-05-21T09:57:42.720Z,44.89
2023-05-21T10:02:53.988Z,44.88
2023-05-21T10:08:10.464Z,46.06
2023-05-21T10:13:18.050Z,47.35
2023-05-21T10:19:00.756Z,46.97
2023-05-21T10:24:08.222Z,47.67
2023-05-21T10:29:38.966Z,47.32
2023-05-21T10:34:47.043Z,47.37
2023-05-21T10:39:54.431Z,47.75
2023-05-21T10:45:07.926Z,47.73
2023-05-21T10:50:33.781Z,47.80
2023-05-21T10:55:50.380Z,48.13
2023-05-21T11:00:58.339Z,48.03
2023-05-21T11:06:18.138Z,47.51
2023-05-21T11:11:46.676Z,48.77
2023-05-21T11:16:49.678Z,47.82
2023-05-21T11:22:00.022Z,48.03
2023-05-21T11:27:07.258Z,47.63
2023-05-21T11:32:14.525Z,48.47
2023-05-21T11:37:21.885Z,47.23
2023-05-21T11:42:31.169Z,47.25
2023-05-21T11:47:49.098Z,48.20
2023-05-21T11:53:01.250Z,48.17
2023-05-21T11:58:08.631Z,48.64
2023-05-21T12:03:25.210Z,48.50
2023-05-21T12:08:24.440Z,49.23
2023-05-21T12:13:31.901Z,49.68
2023-05-21T12:18:56.730Z,49.36
2023-05-21T12:23:56.944Z,49.07
2023-05-21T12:29:44.809Z,48.37
2023-05-21T12:34:52.481Z,48.09
2023-05-21T12:40:19.536Z,47.49
2023-05-21T12:46:10.491Z,47.01
2023-05-21T12:50:46.373Z,47.13
2023-05-21T12:55:56.077Z,46.25
2023-05-21T13:01:36.285Z,46.39
2023-05-21T13:06:43.670Z,46.43
2023-05-21T13:12:02.562Z,45.75
2023-05-21T13:17:18.330Z,44.69
2023-05-21T13:22:34.558Z,44.72
2023-05-21T13:27:55.197Z,44.96
2023-05-21T13:33:01.998Z,44.51
2023-05-21T13:38:19.565Z,44.57
2023-05-21T13:43:32.535Z,44.99
2023-05-21T13:48:40.061Z,45.41
2023-05-21T13:54:24.086Z,45.18
2023-05-21T13:59:33.279Z,44.67
2023-05-21T14:04:49.324Z,44.66
2023-05-21T14:10:36.725Z,44.58
2023-05-21T14:16:20.779Z,44.47
2023-05-21T14:22:04.839Z,44.37
2023-05-21T14:27:47.105Z,44.29
2023-05-21T14:38:49.343Z,44.14
2023-05-21T14:44:13.516Z,44.08
2023-05-21T14:49:57.024Z,44.12
2023-05-21T14:56:00.630Z,44.07
2023-05-21T15:01:11.438Z,44.12
2023-05-21T15:06:29.817Z,43.99
2023-05-21T15:11:35.775Z,43.99
2023-05-21T15:16:43.273Z,43.92
2023-05-21T15:22:05.539Z,43.81
2023-05-21T15:27:50.599Z,43.72
2023-05-21T15:32:58.987Z,43.63
2023-05-21T15:38:09.437Z,43.51
2023-05-21T15:43:18.883Z,43.38
2023-05-21T15:48:34.376Z,43.37
2023-05-21T15:53:48.917Z,43.35
2023-05-21T15:58:56.664Z,43.27
2023-05-21T16:04:12.935Z,43.23
2023-05-21T16:09:24.062Z,43.20
2023-05-21T16:14:48.085Z,43.18
2023-05-21T16:19:50.870Z,43.14
2023-05-21T16:25:00.136Z,43.33
2023-05-21T16:30:09.394Z,43.26
2023-05-21T16:35:27.013Z,42.64
2023-05-21T16:40:29.930Z,42.27
2023-05-21T16:45:44.308Z,42.74
2023-05-21T16:50:52.333Z,42.49
2023-05-21T16:55:59.996Z,43.97
2023-05-21T17:01:08.081Z,43.39
2023-05-21T17:06:16.546Z,43.58
2023-05-21T17:11:27.628Z,44.23
2023-05-21T17:16:35.681Z,44.58
2023-05-21T17:21:43.442Z,46.61
2023-05-21T17:26:51.799Z,44.46
2023-05-21T17:32:05.031Z,46.06
2023-05-21T17:37:13.180Z,47.29
2023-05-21T17:42:24.153Z,44.00
2023-05-21T17:47:34.541Z,44.14
2023-05-21T17:52:54.548Z,44.27
2023-05-21T17:57:57.761Z,47.42
2023-05-21T18:03:15.488Z,47.67
2023-05-21T18:08:30.065Z,47.11
2023-05-21T18:13:47.376Z,47.48
2023-05-21T18:18:58.832Z,46.11
2023-05-21T18:24:33.313Z,48.70
2023-05-21T18:29:44.557Z,48.66
2023-05-21T18:34:52.759Z,49.00
2023-05-21T18:40:00.720Z,48.81
2023-05-21T18:45:12.007Z,48.52
2023-05-21T18:50:20.114Z,47.96
2023-05-21T18:55:28.169Z,49.08
2023-05-21T19:00:36.287Z,47.39
2023-05-21T19:05:45.359Z,49.17
2023-05-21T19:10:53.445Z,49.25
2023-05-21T19:16:03.012Z,49.71
2023-05-21T19:21:46.619Z,49.56
2023-05-21T19:26:58.257Z,49.94
2023-05-21T19:32:08.273Z,50.07
2023-05-21T19:37:16.067Z,49.83
2023-05-21T19:42:27.202Z,49.68
2023-05-21T19:47:35.152Z,50.07
2023-05-21T19:52:55.728Z,49.22
2023-05-21T19:58:00.158Z,49.05
2023-05-21T20:03:08.097Z,49.28
2023-05-21T20:08:20.342Z,49.08
2023-05-21T20:13:45.443Z,48.82
2023-05-21T20:18:57.374Z,48.40
2023-05-21T20:24:27.234Z,47.89
2023-05-21T20:29:35.881Z,47.19
2023-05-21T20:35:02.162Z,46.92
2023-05-21T20:40:00.313Z,46.53
2023-05-21T20:45:16.170Z,46.38
2023-05-21T20:50:29.203Z,46.05
2023-05-21T20:55:48.319Z,45.81
2023-05-21T21:00:56.107Z,45.42
2023-05-21T21:06:11.892Z,45.19
2023-05-21T21:11:34.855Z,44.75
2023-05-21T21:16:46.247Z,44.54
2023-05-21T21:21:58.403Z,44.19
2023-05-21T21:27:11.948Z,43.96
2023-05-21T21:32:20.887Z,43.78
2023-05-21T21:37:33.151Z,43.54
2023-05-21T21:42:40.688Z,43.45
2023-05-21T21:48:00.458Z,42.79
2023-05-21T21:53:10.890Z,42.70
2023-05-21T21:58:23.545Z,42.78
2023-05-21T22:03:31.289Z,42.49
2023-05-21T22:08:38.712Z,42.19
2023-05-21T22:13:46.425Z,41.91
2023-05-21T22:19:09.971Z,41.68
2023-05-21T22:24:30.238Z,41.61
2023-05-21T22:29:21.594Z,41.63
2023-05-21T22:35:16.259Z,41.52
2023-05-21T22:40:18.136Z,41.54
2023-05-21T22:46:00.561Z,41.43
2023-05-21T22:57:44.196Z,41.66
2023-05-21T23:03:43.133Z,41.23
2023-05-21T23:09:25.746Z,41.31
2023-05-21T23:14:54.748Z,41.40
2023-05-21T23:20:15.613Z,41.77
2023-05-21T23:26:02.873Z,41.87
2023-05-21T23:33:20.367Z,41.94
2023-05-21T23:37:29.618Z,42.21
2023-05-21T23:43:12.241Z,42.32
2023-05-21T23:58:51.482Z,42.18
